Time;durP1;ratioP1;P1;durP2;ratioP2;P2;SDS_P1;SDS_P2;PMS_P1;PMS_P2;Temp;Humidity;BMP_temperature;BMP_pressure;BME280_temperature;BME280_humidity;BME280_pressure;Samples;Min_cycle;Max_cycle;Signal;HPM_P1;HPM_P2
2022/05/03 00:00:04;;;;;;;14.73;10.48;;;;;;;4.93;92.73;102161.63;5112360;28;20409;-68
2022/05/03 00:02:41;;;;;;;14.57;10.75;;;;;;;4.91;93.44;102164.31;5110364;28;20066;-69
2022/05/03 00:05:07;;;;;;;21.17;13.48;;;;;;;4.90;93.43;102156.47;5111739;28;20050;-69
2022/05/03 00:07:44;;;;;;;16.58;11.07;;;;;;;4.92;94.43;102154.63;5112200;28;20428;-69
2022/05/03 00:10:20;;;;;;;15.10;10.68;;;;;;;4.89;94.36;102155.59;5112154;28;20051;-69
2022/05/03 00:13:01;;;;;;;15.77;10.23;;;;;;;4.83;93.28;102150.63;5111891;28;20173;-70
2022/05/03 00:15:27;;;;;;;17.20;12.20;;;;;;;4.82;92.83;102151.56;5110511;28;20028;-69
2022/05/03 00:17:54;;;;;;;16.55;11.25;;;;;;;4.80;93.46;102152.53;5092775;28;20038;-69
2022/05/03 00:20:21;;;;;;;15.07;11.25;;;;;;;4.76;92.59;102150.06;5112038;28;20028;-68
2022/05/03 00:22:46;;;;;;;19.38;12.05;;;;;;;4.74;92.61;102151.03;5111316;28;20031;-70
2022/05/03 00:25:12;;;;;;;19.15;12.50;;;;;;;4.74;92.82;102158.94;5092830;28;20427;-70
2022/05/03 00:27:38;;;;;;;16.00;11.63;;;;;;;4.71;92.93;102156.44;5112155;28;20046;-69
2022/05/03 00:30:05;;;;;;;25.10;14.98;;;;;;;4.71;92.93;102159.94;5111302;28;20039;-70
2022/05/03 00:32:31;;;;;;;16.95;11.93;;;;;;;4.66;93.12;102154.03;5111599;28;20047;-69
2022/05/03 00:35:00;;;;;;;20.17;14.00;;;;;;;4.66;92.75;102154.03;5111095;28;20161;-70
2022/05/03 00:37:27;;;;;;;22.80;13.65;;;;;;;4.64;93.24;102155.00;5093007;28;20040;-68
2022/05/03 00:39:52;;;;;;;18.15;12.18;;;;;;;4.61;93.34;102155.16;5091760;28;20101;-69
2022/05/03 00:42:20;;;;;;;17.73;12.82;;;;;;;4.57;93.04;102147.38;5111607;28;20028;-69
2022/05/03 00:45:19;;;;;;;20.40;11.73;;;;;;;4.53;92.71;102147.59;5111623;28;20035;-71
2022/05/03 00:48:03;;;;;;;15.30;12.10;;;;;;;4.52;93.10;102153.78;5111402;28;20121;-69
2022/05/03 00:50:59;;;;;;;20.02;13.65;;;;;;;4.50;93.06;102158.25;5111314;28;20028;-69
2022/05/03 00:53:33;;;;;;;18.73;11.82;;;;;;;4.47;92.40;102153.97;5092978;28;20020;-69
2022/05/03 00:56:37;;;;;;;19.88;13.65;;;;;;;4.45;93.19;102147.94;5110725;28;20432;-69
2022/05/03 00:59:15;;;;;;;19.33;12.77;;;;;;;4.43;93.46;102148.91;5093203;28;20024;-70
2022/05/03 01:02:05;;;;;;;18.08;13.05;;;;;;;4.37;93.02;102153.53;5093101;28;20472;-70
2022/05/03 01:05:10;;;;;;;24.27;13.55;;;;;;;4.34;92.68;102158.06;5092716;28;20028;-69
2022/05/03 01:07:36;;;;;;;21.77;13.75;;;;;;;4.30;93.30;102154.72;5111293;28;20039;-69
2022/05/03 01:10:01;;;;;;;19.80;13.43;;;;;;;4.28;93.89;102155.69;5110253;28;20040;-69
2022/05/03 01:12:50;;;;;;;18.17;12.38;;;;;;;4.24;93.96;102155.84;5110831;28;20127;-69
2022/05/03 01:15:23;;;;;;;22.10;14.70;;;;;;;4.24;94.12;102147.94;5091781;28;20034;-68
2022/05/03 01:18:10;;;;;;;22.48;13.90;;;;;;;4.24;94.39;102145.28;5110960;28;20035;-69
2022/05/03 01:20:50;;;;;;;25.33;15.02;;;;;;;4.27;95.33;102143.44;5111091;28;20027;-69
2022/05/03 01:23:40;;;;;;;20.83;13.57;;;;;;;4.23;94.77;102140.09;5110190;28;20118;-69
2022/05/03 01:26:24;;;;;;;19.60;12.57;;;;;;;4.20;93.83;102138.44;5109921;28;20035;-70
2022/05/03 01:29:11;;;;;;;24.80;14.82;;;;;;;4.19;94.14;102135.88;5110546;28;20065;-70
2022/05/03 01:31:39;;;;;;;25.05;16.60;;;;;;;4.20;94.91;102135.81;5110101;28;20060;-70
2022/05/03 01:34:06;;;;;;;23.27;14.57;;;;;;;4.19;95.15;102141.13;5109686;28;20051;-70
2022/05/03 01:37:00;;;;;;;21.85;14.48;;;;;;;4.15;94.50;102145.69;5110264;28;20031;-70
2022/05/03 01:39:47;;;;;;;25.58;15.95;;;;;;;4.15;94.32;102140.44;5066710;28;20039;-70
2022/05/03 01:42:44;;;;;;;21.35;14.88;;;;;;;4.17;93.91;102145.63;5109555;28;20024;-68
2022/05/03 01:45:10;;;;;;;27.88;17.23;;;;;;;4.18;94.49;102142.94;5109592;28;20059;-69
2022/05/03 01:48:03;;;;;;;20.67;14.40;;;;;;;4.18;94.86;102132.38;5091529;28;20036;-68
2022/05/03 01:50:42;;;;;;;20.85;14.13;;;;;;;4.16;94.93;102138.63;5110082;28;20028;-70
2022/05/03 01:53:15;;;;;;;21.95;15.52;;;;;;;4.11;94.06;102133.56;5108737;28;20039;-68
2022/05/03 01:56:19;;;;;;;23.98;14.77;;;;;;;4.08;93.58;102125.81;5109966;28;20072;-69
2022/05/03 01:58:47;;;;;;;22.35;14.52;;;;;;;4.04;93.17;102132.97;5109969;28;20157;-69
2022/05/03 02:01:45;;;;;;;22.35;14.50;;;;;;;3.99;93.11;102128.84;5109077;28;20023;-70
2022/05/03 02:04:35;;;;;;;23.30;15.65;;;;;;;3.99;94.07;102123.56;5109473;28;20118;-70
2022/05/03 02:07:25;;;;;;;27.65;17.38;;;;;;;4.01;94.70;102130.47;5090560;28;20446;-70
2022/05/03 02:09:59;;;;;;;23.35;15.45;;;;;;;4.04;95.12;102138.22;5109620;28;20043;-69
2022/05/03 02:12:25;;;;;;;25.63;16.17;;;;;;;4.06;95.31;102139.03;5091126;28;20039;-69
2022/05/03 02:14:53;;;;;;;25.98;18.08;;;;;;;4.12;95.69;102130.03;5091082;28;20034;-69
2022/05/03 02:17:50;;;;;;;31.17;18.33;;;;;;;4.22;96.62;102128.72;5108797;28;20641;-69
2022/05/03 02:20:41;;;;;;;26.92;16.98;;;;;;;4.35;97.40;102125.53;5108842;28;20027;-69
2022/05/03 02:23:32;;;;;;;31.03;18.97;;;;;;;4.47;98.11;102124.97;5108957;28;20477;-69
2022/05/03 02:26:31;;;;;;;27.17;18.52;;;;;;;4.56;98.68;102129.84;5090917;28;20039;-69
2022/05/03 02:29:06;;;;;;;27.38;17.75;;;;;;;4.64;98.84;102128.66;5109911;28;20023;-69
2022/05/03 02:31:37;;;;;;;27.65;17.55;;;;;;;4.70;99.27;102125.72;5090813;28;20391;-71
2022/05/03 02:34:24;;;;;;;26.25;17.75;;;;;;;4.76;99.23;102126.31;5090163;28;20043;-71
2022/05/03 02:36:58;;;;;;;25.42;16.77;;;;;;;4.84;99.48;102125.13;5109241;28;20039;-70
2022/05/03 02:39:28;;;;;;;27.80;18.67;;;;;;;4.91;99.65;102127.41;5108730;28;20055;-69
2022/05/03 02:41:59;;;;;;;31.60;19.95;;;;;;;4.98;99.86;102129.75;5109189;28;20348;-69
2022/05/03 02:44:28;;;;;;;39.60;22.42;;;;;;;5.07;100.00;102124.88;5090255;28;20325;-70
2022/05/03 02:47:03;;;;;;;35.55;22.67;;;;;;;5.17;100.00;102127.97;5109453;28;20127;-69
2022/05/03 02:49:50;;;;;;;34.53;20.95;;;;;;;5.25;100.00;102123.16;5109408;28;20317;-69
2022/05/03 02:52:36;;;;;;;35.60;22.17;;;;;;;5.35;100.00;102122.75;5108612;28;20485;-69
2022/05/03 02:55:17;;;;;;;38.75;22.50;;;;;;;5.45;100.00;102126.66;5109249;28;20040;-69
2022/05/03 02:58:04;;;;;;;35.95;22.63;;;;;;;5.53;100.00;102126.28;5109182;28;20106;-69
2022/05/03 03:03:59;;;;;;;38.00;22.27;;;;;;;5.70;100.00;102123.63;5109924;28;20046;-69
2022/05/03 03:06:30;;;;;;;40.60;23.52;;;;;;;5.77;100.00;102122.41;5096669;28;20346;-69
2022/05/03 03:08:57;;;;;;;37.88;23.25;;;;;;;5.83;100.00;102123.88;5095226;28;20031;-69
2022/05/03 03:11:51;;;;;;;40.38;23.60;;;;;;;5.87;100.00;102117.53;5112778;28;20069;-69
2022/05/03 03:14:34;;;;;;;47.47;25.08;;;;;;;5.95;100.00;102115.34;5112904;28;20028;-69
2022/05/03 03:17:07;;;;;;;34.67;22.75;;;;;;;6.00;100.00;102117.78;5113562;28;20077;-69
2022/05/03 03:19:46;;;;;;;32.42;21.95;;;;;;;6.04;100.00;102116.69;5094874;28;20035;-69
2022/05/03 03:22:14;;;;;;;37.47;21.85;;;;;;;6.09;100.00;102113.81;5112613;28;20170;-70
2022/05/03 03:24:41;;;;;;;37.25;23.27;;;;;;;6.11;100.00;102109.31;5094892;28;20114;-69
2022/05/03 03:27:10;;;;;;;36.45;24.02;;;;;;;6.15;100.00;102116.13;5094286;28;20035;-73
2022/05/03 03:29:38;;;;;;;43.85;24.60;;;;;;;6.16;100.00;102113.41;5112893;28;20492;-68
2022/05/03 03:32:06;;;;;;;37.63;23.42;;;;;;;6.20;100.00;102115.94;5113105;28;20048;-69
2022/05/03 03:34:33;;;;;;;36.75;22.73;;;;;;;6.23;100.00;102108.69;5077326;28;20034;-70
2022/05/03 03:37:04;;;;;;;34.03;23.70;;;;;;;6.24;100.00;102110.41;5094399;28;20032;-71
2022/05/03 03:39:30;;;;;;;;;;;;;;;6.25;100.00;102116.53;5112612;28;20023;-69
2022/05/03 03:42:06;;;;;;;37.17;22.45;;;;;;;6.22;100.00;102111.41;5094036;28;19919;-69
2022/05/03 03:44:32;;;;;;;36.95;22.27;;;;;;;6.18;100.00;102111.56;5093933;28;20127;-69
2022/05/03 03:47:00;;;;;;;38.00;22.45;;;;;;;6.11;100.00;102106.69;5094430;28;20076;-68
2022/05/03 03:49:26;;;;;;;34.33;21.00;;;;;;;6.03;99.80;102103.56;5094115;28;20114;-68
2022/05/03 03:51:52;;;;;;;33.70;21.42;;;;;;;5.97;99.68;102110.00;5094119;28;20535;-68
2022/05/03 03:54:19;;;;;;;35.67;23.60;;;;;;;5.91;99.54;102105.00;5111969;28;20115;-69
2022/05/03 03:56:45;;;;;;;40.65;23.70;;;;;;;5.88;99.89;102106.03;5093797;28;20092;-69
2022/05/03 03:59:14;;;;;;;33.92;22.40;;;;;;;5.89;100.00;102106.88;5111848;28;20107;-73
2022/05/03 04:01:40;;;;;;;40.42;23.20;;;;;;;5.87;100.00;102109.59;5111966;28;20028;-69
2022/05/03 04:04:08;;;;;;;38.83;23.52;;;;;;;5.85;100.00;102111.44;5076434;28;20471;-69
2022/05/03 04:06:34;;;;;;;37.63;22.58;;;;;;;5.80;100.00;102114.31;5111142;28;20155;-68
2022/05/03 04:09:00;;;;;;;32.65;21.13;;;;;;;5.72;100.00;102116.50;5111795;28;20036;-70
2022/05/03 04:11:25;;;;;;;32.40;20.45;;;;;;;5.63;100.00;102112.53;5092971;28;20042;-68
2022/05/03 04:13:52;;;;;;;31.00;20.73;;;;;;;5.54;99.85;102113.00;5111910;28;20051;-69
2022/05/03 04:16:18;;;;;;;32.30;20.00;;;;;;;5.43;99.62;102115.28;5092816;28;20047;-69
2022/05/03 04:18:46;;;;;;;28.80;17.90;;;;;;;5.36;99.22;102117.38;5095629;28;20028;-69
2022/05/03 04:21:16;;;;;;;31.92;19.92;;;;;;;5.29;99.24;102111.53;5112621;28;20107;-69
2022/05/03 04:23:41;;;;;;;28.08;17.85;;;;;;;5.28;99.62;102114.25;5111800;28;20031;-69
2022/05/03 04:26:09;;;;;;;31.92;20.63;;;;;;;5.32;99.81;102114.97;5093012;28;20028;-69
2022/05/03 04:28:41;;;;;;;34.30;21.27;;;;;;;5.38;100.00;102114.66;5111285;28;20159;-69
2022/05/03 04:31:06;;;;;;;36.50;22.45;;;;;;;5.48;100.00;102119.44;5094332;28;20042;-69
2022/05/03 04:33:32;;;;;;;38.85;22.63;;;;;;;5.59;100.00;102107.47;5110620;28;20047;-69
2022/05/03 04:35:57;;;;;;;39.17;22.10;;;;;;;5.72;100.00;102113.88;5111352;28;20143;-69
2022/05/03 04:38:23;;;;;;;36.33;22.15;;;;;;;5.85;100.00;102102.69;5058639;28;20027;-69
2022/05/03 04:40:49;;;;;;;36.88;22.55;;;;;;;6.00;100.00;102113.38;5092916;28;20063;-69
2022/05/03 04:43:14;;;;;;;39.88;22.98;;;;;;;6.13;100.00;102110.09;5111138;28;20321;-68
2022/05/03 04:45:39;;;;;;;38.90;22.20;;;;;;;6.26;100.00;102116.44;5092126;28;20363;-69
2022/05/03 04:48:05;;;;;;;35.80;21.73;;;;;;;6.40;100.00;102115.72;5111571;28;20027;-70
2022/05/03 04:50:31;;;;;;;34.38;21.58;;;;;;;6.52;100.00;102116.88;5110247;28;20038;-70
2022/05/03 04:52:57;;;;;;;35.05;21.45;;;;;;;6.62;100.00;102117.25;5075681;28;20360;-69
2022/05/03 04:55:25;;;;;;;33.30;20.83;;;;;;;6.71;100.00;102127.31;5092125;28;20075;-69
2022/05/03 04:57:52;;;;;;;33.58;20.08;;;;;;;6.80;100.00;102120.69;5111050;28;20074;-68
2022/05/03 05:00:18;;;;;;;35.42;22.13;;;;;;;6.91;100.00;102118.28;5075994;28;20095;-68
2022/05/03 05:02:43;;;;;;;33.20;22.15;;;;;;;7.03;100.00;102125.56;5091701;28;20500;-69
2022/05/03 05:05:09;;;;;;;32.28;22.02;;;;;;;7.17;100.00;102127.44;5092713;28;20533;-71
2022/05/03 05:07:34;;;;;;;33.65;20.40;;;;;;;7.30;100.00;102127.63;5110360;28;20062;-70
2022/05/03 05:12:44;;;;;;;35.10;20.85;;;;;;;7.58;100.00;102134.88;5110705;28;20043;-69
2022/05/03 05:15:10;;;;;;;31.13;20.60;;;;;;;7.72;100.00;102138.50;5110866;28;20325;-69
2022/05/03 05:17:35;;;;;;;28.73;20.35;;;;;;;7.90;100.00;102144.53;5091709;28;20035;-69
2022/05/03 05:20:01;;;;;;;34.60;22.48;;;;;;;7.99;100.00;102145.81;5110691;28;20060;-70
2022/05/03 05:22:26;;;;;;;32.22;20.75;;;;;;;8.08;99.04;102143.44;5109805;28;20055;-69
2022/05/03 05:24:51;;;;;;;31.92;22.65;;;;;;;8.22;98.28;102139.97;5110515;28;20058;-68
2022/05/03 05:27:17;;;;;;;33.60;22.45;;;;;;;8.34;97.87;102142.84;5110694;28;20028;-68
2022/05/03 05:29:43;;;;;;;32.88;22.15;;;;;;;8.43;96.58;102143.16;5074381;28;20050;-68
2022/05/03 05:32:09;;;;;;;34.00;21.77;;;;;;;8.56;95.83;102134.47;5110163;28;20056;-69
2022/05/03 05:34:34;;;;;;;34.08;22.38;;;;;;;8.71;96.47;102133.50;5069076;28;20495;-71
2022/05/03 05:37:00;;;;;;;29.65;21.85;;;;;;;8.77;95.29;102135.78;5048826;28;20465;-68
2022/05/03 05:39:26;;;;;;;33.53;23.60;;;;;;;8.87;94.39;102133.41;5031966;28;20128;-74
2022/05/03 05:41:59;;;;;;;33.72;22.38;;;;;;;8.98;93.99;102132.72;5066573;28;20097;-69
2022/05/03 05:44:28;;;;;;;33.10;22.40;;;;;;;9.09;93.39;102135.56;5067132;28;20461;-70
2022/05/03 05:46:54;;;;;;;31.88;20.95;;;;;;;9.20;92.68;102139.34;5048502;28;20395;-68
2022/05/03 05:49:20;;;;;;;32.13;21.75;;;;;;;9.34;93.06;102128.66;5065226;28;20040;-68
2022/05/03 05:51:46;;;;;;;30.80;21.63;;;;;;;9.44;93.05;102134.25;5066291;28;20681;-69
2022/05/03 05:54:12;;;;;;;31.95;21.95;;;;;;;9.55;93.12;102137.03;5067118;28;20357;-69
2022/05/03 05:56:38;;;;;;;31.00;21.42;;;;;;;9.61;91.64;102144.59;5066535;28;20421;-69
2022/05/03 05:59:03;;;;;;;30.50;20.25;;;;;;;9.69;90.97;102144.13;5048369;28;20056;-70
2022/05/03 06:01:37;;;;;;;34.20;20.88;;;;;;;9.78;90.93;102143.50;5048094;28;20163;-71
2022/05/03 06:04:03;;;;;;;30.30;20.30;;;;;;;9.88;90.57;102139.28;5048584;28;20024;-69
2022/05/03 06:06:28;;;;;;;26.63;19.42;;;;;;;10.00;90.49;102145.56;5048390;28;20036;-72
2022/05/03 06:08:54;;;;;;;30.08;21.10;;;;;;;10.08;89.91;102142.41;5047814;28;20067;-68
2022/05/03 06:11:19;;;;;;;27.65;18.48;;;;;;;10.19;89.70;102145.16;5031182;28;20055;-69
2022/05/03 06:13:44;;;;;;;28.55;20.02;;;;;;;10.26;88.67;102148.25;5066318;28;20041;-70
2022/05/03 06:16:11;;;;;;;26.50;17.95;;;;;;;10.33;88.58;102144.25;5066637;28;20437;-71
2022/05/03 06:18:40;;;;;;;31.67;18.48;;;;;;;10.44;88.46;102153.31;5066441;28;20032;-70
2022/05/03 06:21:07;;;;;;;24.58;18.48;;;;;;;10.51;88.37;102147.47;5066583;28;20140;-70
2022/05/03 06:23:33;;;;;;;28.70;19.50;;;;;;;10.57;87.36;102152.34;5066236;28;20481;-67
2022/05/03 06:25:59;;;;;;;25.60;19.50;;;;;;;10.65;87.58;102151.81;5048220;28;20065;-69
2022/05/03 06:28:25;;;;;;;30.58;20.58;;;;;;;10.72;87.65;102149.59;5048193;28;20037;-70
2022/05/03 06:30:50;;;;;;;27.13;19.48;;;;;;;10.77;87.22;102158.09;5066420;28;20051;-71
2022/05/03 06:33:15;;;;;;;24.23;18.88;;;;;;;10.86;87.01;102160.09;5066194;28;20083;-70
2022/05/03 06:35:41;;;;;;;29.35;19.05;;;;;;;10.96;86.82;102159.44;5047758;28;20109;-69
2022/05/03 06:38:07;;;;;;;28.17;19.17;;;;;;;11.01;86.58;102154.63;5047805;28;20067;-69
2022/05/03 06:40:32;;;;;;;27.85;19.55;;;;;;;11.07;86.86;102156.88;5066181;28;20051;-72
2022/05/03 06:42:58;;;;;;;35.75;19.63;;;;;;;11.12;86.60;102157.38;5048527;28;20055;-68
2022/05/03 06:45:23;;;;;;;24.23;17.23;;;;;;;11.23;85.58;102159.28;5048257;28;20358;-69
2022/05/03 06:47:49;;;;;;;27.92;18.13;;;;;;;11.37;84.60;102161.78;5030929;28;20131;-69
2022/05/03 06:50:15;;;;;;;23.85;17.00;;;;;;;11.51;83.21;102155.44;5047894;28;20044;-70
2022/05/03 06:52:41;;;;;;;21.25;17.08;;;;;;;11.60;82.67;102156.59;5065902;28;20024;-70
2022/05/03 06:55:07;;;;;;;21.92;16.05;;;;;;;11.61;82.46;102155.59;5066313;28;20425;-68
2022/05/03 06:57:33;;;;;;;24.70;17.10;;;;;;;11.63;82.27;102162.53;5048298;28;20522;-69
2022/05/03 07:00:02;;;;;;;22.75;16.52;;;;;;;11.71;82.51;102164.63;5066223;28;20135;-69
2022/05/03 07:02:30;;;;;;;23.38;17.05;;;;;;;11.79;81.69;102169.38;5066365;28;20143;-69
2022/05/03 07:04:56;;;;;;;22.80;16.10;;;;;;;11.89;80.70;102161.56;5048062;28;20103;-69
2022/05/03 07:07:22;;;;;;;23.45;16.42;;;;;;;11.99;81.05;102158.09;5047743;28;20176;-69
2022/05/03 07:09:47;;;;;;;21.85;16.67;;;;;;;12.10;81.04;102162.63;5065819;28;20156;-68
2022/05/03 07:12:12;;;;;;;23.23;15.43;;;;;;;12.27;79.79;102161.34;5066680;28;20040;-69
2022/05/03 07:14:38;;;;;;;22.00;14.20;;;;;;;12.41;78.83;102162.09;5065976;28;20391;-68
2022/05/03 07:17:04;;;;;;;22.67;16.33;;;;;;;12.48;78.26;102174.84;5066313;28;20072;-68
2022/05/03 07:24:58;;;;;;;20.08;15.63;;;;;;;12.68;77.09;102165.25;5073065;28;20192;-68
2022/05/03 07:27:23;;;;;;;17.40;13.68;;;;;;;12.84;76.07;102166.75;5088805;28;20103;-68
2022/05/03 07:29:50;;;;;;;18.13;13.88;;;;;;;12.99;75.15;102168.19;5070121;28;20043;-68
2022/05/03 07:32:15;;;;;;;17.88;14.00;;;;;;;13.11;74.59;102165.50;5097262;28;20241;-69
2022/05/03 07:34:40;;;;;;;19.95;15.68;;;;;;;13.23;73.31;102173.38;5057064;28;20131;-69
2022/05/03 07:37:06;;;;;;;21.40;14.73;;;;;;;13.31;72.50;102178.09;5108979;28;20127;-68
2022/05/03 07:39:31;;;;;;;18.33;13.68;;;;;;;13.35;72.39;102178.75;5074225;28;20035;-69
2022/05/03 07:41:57;;;;;;;21.40;14.90;;;;;;;13.30;72.03;102178.22;5108646;28;20111;-69
2022/05/03 07:44:23;;;;;;;19.85;14.68;;;;;;;13.33;72.54;102180.66;5090609;28;20036;-69
2022/05/03 07:46:49;;;;;;;21.13;15.63;;;;;;;13.29;72.53;102180.06;5090339;28;20027;-69
2022/05/03 07:49:14;;;;;;;20.63;15.05;;;;;;;13.26;71.78;102182.97;5090439;28;20123;-68
2022/05/03 07:51:42;;;;;;;21.60;16.27;;;;;;;13.05;73.35;102185.56;5073579;28;20128;-68
2022/05/03 07:54:09;;;;;;;19.15;15.93;;;;;;;12.89;73.82;102191.25;5056846;28;20048;-69
2022/05/03 07:56:35;;;;;;;25.80;18.42;;;;;;;12.76;74.31;102187.84;5073213;28;20126;-70
2022/05/03 07:59:00;;;;;;;26.48;17.92;;;;;;;12.63;74.23;102182.59;5055291;28;20120;-68
2022/05/03 08:01:25;;;;;;;26.17;19.25;;;;;;;12.60;75.42;102189.06;5040202;28;20032;-69
2022/05/03 08:03:51;;;;;;;31.38;21.55;;;;;;;12.53;75.60;102187.84;5056268;28;20509;-69
2022/05/03 08:06:16;;;;;;;30.73;21.92;;;;;;;12.50;76.52;102183.56;5091753;28;20078;-69
2022/05/03 08:08:41;;;;;;;31.38;22.25;;;;;;;12.50;76.15;102186.25;5091738;28;20034;-69
2022/05/03 08:11:07;;;;;;;39.70;25.08;;;;;;;12.38;76.49;102189.03;5090652;28;20337;-70
2022/05/03 08:13:32;;;;;;;38.75;26.75;;;;;;;12.41;77.45;102189.63;5073597;28;20028;-68
2022/05/03 08:15:58;;;;;;;39.05;25.75;;;;;;;12.56;77.45;102195.59;5091731;28;20373;-69
2022/05/03 08:18:23;;;;;;;45.13;28.27;;;;;;;12.57;77.17;102196.44;5091720;28;20032;-68
2022/05/03 08:20:48;;;;;;;49.03;29.80;;;;;;;12.68;76.94;102199.13;5072682;28;20146;-70
2022/05/03 08:23:14;;;;;;;48.97;28.33;;;;;;;12.70;76.15;102192.72;5072953;28;20059;-68
2022/05/03 08:25:39;;;;;;;53.53;29.17;;;;;;;12.61;76.13;102203.25;5091733;28;20024;-68
2022/05/03 08:28:05;;;;;;;49.13;28.80;;;;;;;12.46;76.77;102205.28;5073008;28;20127;-68
2022/05/03 08:30:31;;;;;;;51.50;28.50;;;;;;;12.28;77.55;102204.88;5091955;28;20042;-68
2022/05/03 08:32:56;;;;;;;52.05;30.73;;;;;;;12.19;78.83;102209.09;5105216;28;20139;-68
2022/05/03 08:35:24;;;;;;;56.42;30.40;;;;;;;12.15;78.97;102205.81;5112251;28;20456;-67
2022/05/03 08:43:17;;;;;;;69.25;32.53;;;;;;;11.70;81.09;102207.41;5112475;28;20199;-67
2022/05/03 08:45:48;;;;;;;66.05;33.30;;;;;;;11.62;82.45;102210.63;5095202;28;20449;-67
2022/05/03 08:48:16;;;;;;;65.27;31.33;;;;;;;11.69;83.49;102205.69;5113699;28;20046;-67
2022/05/03 08:50:42;;;;;;;65.20;31.05;;;;;;;11.91;82.15;102200.50;5113511;28;20080;-68
2022/05/03 08:53:07;;;;;;;62.63;30.35;;;;;;;12.10;81.53;102197.28;5094709;28;20394;-69
2022/05/03 08:55:33;;;;;;;63.45;29.25;;;;;;;12.27;81.00;102201.38;5112515;28;20367;-68
2022/05/03 08:57:59;;;;;;;60.63;29.38;;;;;;;12.57;80.53;102199.97;5112621;28;20385;-67
2022/05/03 09:00:25;;;;;;;62.45;29.73;;;;;;;12.80;78.24;102203.50;5111516;28;20472;-69
2022/05/03 09:02:56;;;;;;;57.65;29.10;;;;;;;13.09;78.19;102202.19;5111217;28;20024;-69
2022/05/03 09:05:23;;;;;;;61.55;28.50;;;;;;;13.28;76.30;102206.91;5111534;28;20031;-69
2022/05/03 09:07:53;;;;;;;56.90;27.02;;;;;;;13.56;75.85;102205.56;5092907;28;20023;-69
2022/05/03 09:10:21;;;;;;;51.70;27.00;;;;;;;13.95;72.88;102202.38;5111510;28;20035;-68
2022/05/03 09:12:49;;;;;;;48.33;25.92;;;;;;;14.55;70.42;102208.84;5111581;28;20058;-68
2022/05/03 09:15:15;;;;;;;48.65;27.65;;;;;;;14.83;70.06;102208.34;5110930;28;20027;-69
2022/05/03 09:17:41;;;;;;;54.58;28.80;;;;;;;14.93;68.76;102207.41;5092795;28;20042;-68
2022/05/03 09:26:09;;;;;;;49.28;25.48;;;;;;;14.09;69.21;102210.09;5110834;28;20035;-68
2022/05/03 09:28:43;;;;;;;54.95;25.65;;;;;;;13.66;71.04;102203.81;5110975;28;20020;-70
2022/05/03 09:31:08;;;;;;;50.35;26.00;;;;;;;13.58;73.81;102208.94;5092107;28;20036;-68
2022/05/03 09:33:36;;;;;;;55.58;25.65;;;;;;;13.77;73.18;102208.28;5110710;28;20063;-69
2022/05/03 09:36:08;;;;;;;40.53;21.95;;;;;;;14.27;69.85;102210.38;5075284;28;20116;-69
2022/05/03 09:38:44;;;;;;;50.25;24.35;;;;;;;14.55;69.07;102208.84;5092382;28;20417;-69
2022/05/03 09:41:16;;;;;;;45.92;24.17;;;;;;;14.66;68.66;102213.34;5110125;28;20132;-69
2022/05/03 09:44:01;;;;;;;51.60;25.45;;;;;;;14.58;68.68;102210.44;5110849;28;20063;-69
2022/05/03 09:46:26;;;;;;;44.45;23.63;;;;;;;14.53;68.76;102210.00;5110326;28;20032;-68
2022/05/03 09:48:54;;;;;;;54.78;26.92;;;;;;;14.40;69.06;102207.50;5110586;28;20101;-68
2022/05/03 09:51:21;;;;;;;49.50;24.88;;;;;;;14.37;69.44;102208.59;5091448;28;20046;-68
2022/05/03 09:53:59;;;;;;;49.30;26.42;;;;;;;14.31;70.52;102203.78;5109969;28;20038;-70
2022/05/03 09:56:30;;;;;;;49.53;27.48;;;;;;;14.32;69.15;102200.13;5108726;28;20123;-71
2022/05/03 09:59:02;;;;;;;48.33;25.50;;;;;;;14.42;68.71;102202.84;5069409;28;20151;-69
2022/05/03 10:01:28;;;;;;;49.25;25.48;;;;;;;14.35;69.88;102202.53;5083400;28;20153;-69
2022/05/03 10:03:54;;;;;;;53.92;26.38;;;;;;;14.33;69.26;102206.31;5071307;28;20040;-69
2022/05/03 10:06:20;;;;;;;49.70;24.67;;;;;;;14.33;69.69;102214.34;5088655;28;20032;-69
2022/05/03 10:08:48;;;;;;;47.75;24.77;;;;;;;14.36;70.22;102201.56;5089592;28;20112;-69
2022/05/03 10:11:16;;;;;;;52.35;25.35;;;;;;;14.55;68.53;102208.84;5089565;28;20112;-69
2022/05/03 10:13:41;;;;;;;51.47;25.10;;;;;;;14.58;68.14;102205.06;5070807;28;20027;-69
2022/05/03 10:21:40;;;;;;;36.40;21.55;;;;;;;15.34;65.05;102207.41;5089159;28;20043;-69
2022/05/03 10:24:11;;;;;;;42.28;21.88;;;;;;;15.77;64.80;102210.75;5085580;28;20032;-68
2022/05/03 10:27:01;;;;;;;36.38;20.23;;;;;;;16.18;62.99;102208.78;5086899;28;20329;-69
2022/05/03 10:29:50;;;;;;;32.10;20.50;;;;;;;16.29;61.11;102202.44;5086111;28;20048;-69
2022/05/03 10:32:15;;;;;;;34.65;19.88;;;;;;;16.27;61.62;102210.63;5074069;28;20384;-72
2022/05/03 10:34:59;;;;;;;30.13;18.10;;;;;;;15.93;62.20;102207.50;5105411;28;20082;-70
2022/05/03 10:37:33;;;;;;;27.98;16.73;;;;;;;15.40;63.69;102200.66;5104703;28;20047;-69
2022/05/03 10:40:08;;;;;;;23.92;14.30;;;;;;;15.01;64.89;102205.91;5104994;28;20157;-69
2022/05/03 10:42:33;;;;;;;20.75;13.05;;;;;;;14.89;65.83;102207.81;5105224;28;20360;-68
2022/05/03 10:45:07;;;;;;;20.35;11.60;;;;;;;15.09;65.17;102206.06;5105107;28;20035;-69
2022/05/03 10:47:50;;;;;;;19.35;11.18;;;;;;;15.32;63.28;102198.66;5104848;28;20035;-69
2022/05/03 10:50:15;;;;;;;21.13;11.70;;;;;;;15.45;63.61;102201.94;5106368;28;20480;-69
2022/05/03 10:53:05;;;;;;;15.52;10.98;;;;;;;15.57;62.68;102196.44;5106797;28;20039;-69
2022/05/03 10:55:57;;;;;;;16.20;9.95;;;;;;;16.27;60.52;102191.84;5106560;28;20039;-69
2022/05/03 10:58:33;;;;;;;18.08;10.32;;;;;;;17.02;58.60;102191.06;5104460;28;20104;-69
2022/05/03 11:01:18;;;;;;;15.05;10.68;;;;;;;17.33;56.78;102188.06;5104823;28;20032;-69
2022/05/03 11:03:58;;;;;;;11.82;8.65;;;;;;;17.23;56.11;102190.81;5106614;28;20046;-69
2022/05/03 11:06:25;;;;;;;14.50;9.18;;;;;;;16.88;57.91;102187.00;5104535;28;20057;-69
2022/05/03 11:14:11;;;;;;;20.20;9.52;;;;;;;15.57;61.07;102183.88;5104479;28;20050;-69
2022/05/03 11:16:37;;;;;;;17.08;9.20;;;;;;;15.18;63.18;102175.75;5103580;28;20032;-69
2022/05/03 11:19:11;;;;;;;14.90;8.57;;;;;;;15.15;63.41;102184.06;5107054;28;20339;-69
2022/05/03 11:21:37;;;;;;;13.70;8.38;;;;;;;15.43;63.21;102182.44;5107125;28;20061;-69
2022/05/03 11:24:03;;;;;;;17.27;8.73;;;;;;;15.75;61.54;102181.38;5107968;28;20035;-69
2022/05/03 11:26:29;;;;;;;16.42;9.35;;;;;;;15.56;62.00;102173.31;5113002;28;20136;-69
2022/05/03 11:29:01;;;;;;;16.45;7.95;;;;;;;15.51;62.64;102179.09;5111624;28;20077;-68
2022/05/03 11:31:27;;;;;;;14.07;7.57;;;;;;;15.40;61.57;102172.00;5112242;28;20476;-68
2022/05/03 11:33:58;;;;;;;13.60;8.50;;;;;;;15.23;62.29;102170.84;5112561;28;20130;-69
2022/05/03 11:36:25;;;;;;;16.77;7.80;;;;;;;15.19;62.69;102168.56;5112948;28;20175;-69
2022/05/03 11:38:52;;;;;;;12.27;8.30;;;;;;;14.99;63.16;102171.19;5094503;28;20464;-69
2022/05/03 11:41:26;;;;;;;21.42;9.75;;;;;;;14.77;64.22;102170.38;5111974;28;20416;-70
2022/05/03 11:43:53;;;;;;;18.25;9.07;;;;;;;14.33;65.77;102168.84;5109105;28;20445;-69
2022/05/03 11:46:20;;;;;;;13.85;8.63;;;;;;;14.03;66.59;102168.66;5091511;28;20028;-69
2022/05/03 11:48:52;;;;;;;13.73;8.93;;;;;;;13.78;67.66;102169.88;5092452;28;20087;-71
2022/05/03 11:57:05;;;;;;;18.15;9.05;;;;;;;13.07;70.70;102170.25;5059988;28;20476;-68
2022/05/03 11:59:30;;;;;;;16.15;7.80;;;;;;;12.91;71.07;102167.94;5091660;28;20043;-68
2022/05/03 12:02:20;;;;;;;14.48;8.25;;;;;;;12.70;71.90;102162.47;5073927;28;20035;-69
2022/05/03 12:05:04;;;;;;;15.90;8.88;;;;;;;12.51;72.79;102169.25;5073619;28;20036;-68
2022/05/03 12:07:34;;;;;;;16.90;9.15;;;;;;;12.35;73.42;102166.94;5073143;28;20035;-70